Time;durP1;ratioP1;P1;durP2;ratioP2;P2;SDS_P1;SDS_P2;PMS_P1;PMS_P2;Temp;Humidity;BMP_temperature;BMP_pressure;BME280_temperature;BME280_humidity;BME280_pressure;Samples;Min_cycle;Max_cycle;Signal;HPM_P1;HPM_P2
2023/12/27 00:02:05;;;;;;;0.60;0.60;;;10.90;99.90;;;;;;5090578;28;20409;-78
2023/12/27 00:04:31;;;;;;;0.40;0.40;;;10.80;99.90;;;;;;5091860;28;20621;-78
2023/12/27 00:06:56;;;;;;;0.30;0.30;;;10.80;99.90;;;;;;5091369;28;20179;-78
2023/12/27 00:09:23;;;;;;;0.30;0.20;;;10.80;99.90;;;;;;5092050;28;20215;-81
2023/12/27 00:11:48;;;;;;;0.30;0.20;;;10.80;99.90;;;;;;5091656;28;20164;-81
2023/12/27 00:14:14;;;;;;;0.30;0.20;;;10.80;99.90;;;;;;5092004;28;20188;-79
2023/12/27 00:16:40;;;;;;;0.30;0.20;;;10.80;99.90;;;;;;5091339;28;20401;-79
2023/12/27 00:19:06;;;;;;;0.30;0.20;;;10.80;99.90;;;;;;5090358;28;20365;-78
2023/12/27 00:21:33;;;;;;;0.30;0.20;;;10.80;99.90;;;;;;5091383;28;20480;-81
2023/12/27 00:23:58;;;;;;;0.30;0.20;;;10.80;99.90;;;;;;5090201;28;20490;-79
2023/12/27 00:26:24;;;;;;;0.30;0.20;;;10.80;99.90;;;;;;5091560;28;20582;-79
2023/12/27 00:28:50;;;;;;;0.30;0.20;;;10.80;99.90;;;;;;5091764;28;20188;-81
2023/12/27 00:31:15;;;;;;;0.30;0.20;;;10.80;99.90;;;;;;5089939;28;20185;-78
2023/12/27 00:33:41;;;;;;;0.30;0.20;;;10.80;99.90;;;;;;5091816;28;20255;-78
2023/12/27 00:36:08;;;;;;;0.30;0.20;;;10.80;99.90;;;;;;5088930;28;20767;-78
2023/12/27 00:38:37;;;;;;;0.30;0.20;;;10.80;99.90;;;;;;5089811;28;20662;-81
2023/12/27 00:41:04;;;;;;;0.30;0.20;;;10.80;99.90;;;;;;5089635;28;20208;-81
2023/12/27 00:43:30;;;;;;;0.30;0.20;;;10.80;99.90;;;;;;5091552;28;20650;-78
2023/12/27 00:45:56;;;;;;;0.30;0.20;;;10.80;99.90;;;;;;5090987;28;20188;-78
2023/12/27 00:48:21;;;;;;;0.30;0.20;;;10.70;99.90;;;;;;5091257;28;20206;-78
2023/12/27 00:50:47;;;;;;;0.30;0.20;;;10.70;99.90;;;;;;5091122;28;20501;-79
2023/12/27 00:53:13;;;;;;;0.30;0.30;;;10.70;99.90;;;;;;5091074;28;20644;-79
2023/12/27 00:55:38;;;;;;;0.30;0.20;;;10.70;99.90;;;;;;5106191;28;20302;-78
2023/12/27 00:58:04;;;;;;;0.30;0.20;;;10.70;99.90;;;;;;5090843;28;20203;-78
2023/12/27 01:00:30;;;;;;;0.30;0.20;;;10.70;99.90;;;;;;5090939;28;20708;-79
2023/12/27 01:02:55;;;;;;;0.30;0.20;;;10.70;99.90;;;;;;5089413;28;20204;-81
2023/12/27 01:05:21;;;;;;;0.30;0.20;;;10.70;99.90;;;;;;5090931;28;20255;-78
2023/12/27 01:07:47;;;;;;;0.30;0.20;;;10.70;99.90;;;;;;5090220;28;20291;-78
2023/12/27 01:10:14;;;;;;;0.30;0.20;;;10.70;99.90;;;;;;5090577;28;20192;-78
2023/12/27 01:12:40;;;;;;;0.30;0.30;;;10.70;99.90;;;;;;5090445;28;20204;-81
2023/12/27 01:15:06;;;;;;;0.30;0.20;;;10.70;99.90;;;;;;5090647;28;20606;-80
2023/12/27 01:17:31;;;;;;;0.30;0.20;;;10.70;99.90;;;;;;5090230;28;20269;-78
2023/12/27 01:19:57;;;;;;;0.30;0.20;;;10.70;99.90;;;;;;5090350;28;20217;-79
2023/12/27 01:22:23;;;;;;;0.30;0.20;;;10.70;99.90;;;;;;5090112;28;20172;-80
2023/12/27 01:24:49;;;;;;;0.40;0.40;;;10.70;99.90;;;;;;5090570;28;20399;-79
2023/12/27 01:27:14;;;;;;;1.17;0.87;;;10.70;99.90;;;;;;5088989;28;20772;-81
2023/12/27 01:29:40;;;;;;;0.30;0.20;;;10.70;99.90;;;;;;5089057;28;20196;-78
2023/12/27 01:32:07;;;;;;;0.30;0.20;;;10.70;99.90;;;;;;5090085;28;20173;-81
2023/12/27 01:34:32;;;;;;;0.30;0.20;;;10.70;99.90;;;;;;5088926;28;20272;-80
2023/12/27 01:36:58;;;;;;;0.30;0.20;;;10.70;99.90;;;;;;5090206;28;20744;-79
2023/12/27 01:39:24;;;;;;;0.30;0.20;;;10.70;99.90;;;;;;5089075;28;20193;-81
2023/12/27 01:41:49;;;;;;;0.30;0.20;;;10.70;99.90;;;;;;5089992;28;20208;-78
2023/12/27 01:44:15;;;;;;;0.30;0.20;;;10.70;99.90;;;;;;5088794;28;20267;-81
2023/12/27 01:46:41;;;;;;;0.30;0.20;;;10.60;99.90;;;;;;5088529;28;20305;-78
2023/12/27 01:49:07;;;;;;;4.68;4.50;;;10.60;99.90;;;;;;5089751;28;20189;-78
2023/12/27 01:51:33;;;;;;;0.30;0.20;;;10.60;99.90;;;;;;5089949;28;20184;-81
2023/12/27 01:54:02;;;;;;;0.30;0.20;;;10.60;99.90;;;;;;5088133;28;20448;-81
2023/12/27 01:56:29;;;;;;;0.30;0.20;;;10.60;99.90;;;;;;5089098;28;20184;-81
2023/12/27 01:58:55;;;;;;;0.30;0.20;;;10.50;99.90;;;;;;5088288;28;20204;-78
2023/12/27 02:01:21;;;;;;;0.30;0.20;;;10.50;99.90;;;;;;5089457;28;20216;-80
2023/12/27 02:03:47;;;;;;;0.30;0.20;;;10.50;99.90;;;;;;5089913;28;20429;-78
2023/12/27 02:06:13;;;;;;;0.30;0.20;;;10.40;99.90;;;;;;5087989;28;20182;-80
2023/12/27 02:08:40;;;;;;;0.30;0.20;;;10.40;99.90;;;;;;5089867;28;20445;-78
2023/12/27 02:11:05;;;;;;;0.30;0.20;;;10.40;99.90;;;;;;5088235;28;20188;-81
2023/12/27 02:13:31;;;;;;;0.30;0.30;;;10.40;99.90;;;;;;5089842;28;20188;-78
2023/12/27 02:15:58;;;;;;;0.30;0.20;;;10.30;99.90;;;;;;5089247;28;20188;-78
2023/12/27 02:18:25;;;;;;;0.30;0.20;;;10.30;99.90;;;;;;5089446;28;20192;-78
2023/12/27 02:20:52;;;;;;;0.30;0.20;;;10.30;99.90;;;;;;5088859;28;20262;-81
2023/12/27 02:23:20;;;;;;;0.30;0.20;;;10.20;99.90;;;;;;5088026;28;20358;-81
2023/12/27 02:25:48;;;;;;;0.30;0.20;;;10.20;99.90;;;;;;5089193;28;20180;-78
2023/12/27 02:28:13;;;;;;;0.30;0.20;;;10.20;99.90;;;;;;5089383;28;20188;-78
2023/12/27 02:30:39;;;;;;;0.30;0.20;;;10.10;99.90;;;;;;5088990;28;20183;-81
2023/12/27 02:33:05;;;;;;;0.30;0.20;;;10.10;99.90;;;;;;5089330;28;20204;-79
2023/12/27 02:35:31;;;;;;;0.30;0.20;;;10.10;99.90;;;;;;5087776;28;20642;-78
2023/12/27 02:37:57;;;;;;;0.30;0.20;;;10.10;99.90;;;;;;5088996;28;20240;-78
2023/12/27 02:40:23;;;;;;;0.30;0.20;;;10.10;99.90;;;;;;5087328;28;20215;-81
2023/12/27 02:42:48;;;;;;;0.30;0.20;;;10.10;99.90;;;;;;5088311;28;20193;-81
2023/12/27 02:45:14;;;;;;;0.30;0.20;;;10.00;99.90;;;;;;5088981;28;20670;-78
2023/12/27 02:47:40;;;;;;;0.30;0.20;;;10.00;99.90;;;;;;5089368;28;20180;-78
2023/12/27 02:50:06;;;;;;;0.30;0.20;;;10.00;99.90;;;;;;5087753;28;20279;-80
2023/12/27 02:52:32;;;;;;;0.30;0.20;;;9.90;99.90;;;;;;5104645;28;20638;-79
2023/12/27 02:54:58;;;;;;;0.67;0.67;;;9.90;99.90;;;;;;5088859;28;20255;-78
2023/12/27 02:57:23;;;;;;;0.30;0.20;;;9.90;99.90;;;;;;5088608;28;20536;-78
2023/12/27 02:59:49;;;;;;;0.30;0.20;;;9.80;99.90;;;;;;5088681;28;20276;-80
2023/12/27 03:02:15;;;;;;;0.30;0.20;;;9.80;99.90;;;;;;5087476;28;20236;-81
2023/12/27 03:04:41;;;;;;;0.30;0.20;;;9.80;99.90;;;;;;5090512;28;20432;-78
2023/12/27 03:07:09;;;;;;;0.30;0.20;;;9.70;99.90;;;;;;5092390;28;20260;-81
2023/12/27 03:09:35;;;;;;;0.30;0.20;;;9.70;99.90;;;;;;5093036;28;20204;-81
2023/12/27 03:12:01;;;;;;;0.30;0.20;;;9.70;99.90;;;;;;5091494;28;20180;-81
2023/12/27 03:14:27;;;;;;;0.30;0.20;;;9.70;99.90;;;;;;5091699;28;20237;-81
2023/12/27 03:16:52;;;;;;;0.30;0.20;;;9.70;99.90;;;;;;5092486;28;20172;-81
2023/12/27 03:19:18;;;;;;;0.30;0.20;;;9.70;99.90;;;;;;5092839;28;20641;-78
2023/12/27 03:21:44;;;;;;;0.30;0.20;;;9.60;99.90;;;;;;5092520;28;20232;-81
2023/12/27 03:24:10;;;;;;;0.30;0.20;;;9.70;99.90;;;;;;5093055;28;20224;-80
2023/12/27 03:26:36;;;;;;;0.30;0.20;;;9.60;99.90;;;;;;5092447;28;20211;-80
2023/12/27 03:29:01;;;;;;;0.30;0.20;;;9.70;99.90;;;;;;5093104;28;20196;-78
2023/12/27 03:31:28;;;;;;;0.30;0.20;;;9.60;99.90;;;;;;5092683;28;20603;-81
2023/12/27 03:33:58;;;;;;;2.13;1.95;;;9.60;99.90;;;;;;5108274;28;20200;-78
2023/12/27 03:36:24;;;;;;;0.30;0.20;;;9.60;99.90;;;;;;5092147;28;20165;-81
2023/12/27 03:38:50;;;;;;;0.30;0.20;;;9.60;99.90;;;;;;5091195;28;20325;-78
2023/12/27 03:41:39;;;;;;;0.30;0.20;;;9.50;99.90;;;;;;5091737;28;20604;-81
2023/12/27 03:44:05;;;;;;;0.30;0.20;;;9.50;99.90;;;;;;5091901;28;20192;-78
2023/12/27 03:46:30;;;;;;;0.30;0.20;;;9.40;99.90;;;;;;5090875;28;20176;-81
2023/12/27 03:48:56;;;;;;;0.30;0.20;;;9.40;99.90;;;;;;5092226;28;20667;-81
2023/12/27 03:51:22;;;;;;;0.30;0.20;;;9.40;99.90;;;;;;5091150;28;20660;-80
2023/12/27 03:53:48;;;;;;;0.30;0.20;;;9.40;99.90;;;;;;5091153;28;20787;-78
2023/12/27 03:56:14;;;;;;;0.30;0.20;;;9.40;99.90;;;;;;5091654;28;20180;-81
2023/12/27 03:58:43;;;;;;;0.30;0.30;;;9.30;99.90;;;;;;5092037;28;20444;-81
2023/12/27 04:01:09;;;;;;;0.30;0.20;;;9.30;99.90;;;;;;5090488;28;20397;-78
2023/12/27 04:03:35;;;;;;;0.30;0.30;;;9.30;99.90;;;;;;5092236;28;20196;-78
2023/12/27 04:06:00;;;;;;;0.30;0.20;;;9.20;99.90;;;;;;5091892;28;20565;-82
2023/12/27 04:08:26;;;;;;;0.30;0.20;;;9.20;99.90;;;;;;5092377;28;20776;-78
2023/12/27 04:10:51;;;;;;;0.30;0.20;;;9.10;99.90;;;;;;5091727;28;20269;-78
2023/12/27 04:13:18;;;;;;;0.30;0.20;;;9.10;99.90;;;;;;5092199;28;20204;-81
2023/12/27 04:15:44;;;;;;;0.30;0.20;;;9.10;99.90;;;;;;5090363;28;20180;-81
2023/12/27 04:18:11;;;;;;;0.30;0.20;;;9.00;99.90;;;;;;5091847;28;20196;-81
2023/12/27 04:20:37;;;;;;;0.30;0.20;;;9.00;99.90;;;;;;5091234;28;20274;-81
2023/12/27 04:23:03;;;;;;;0.30;0.20;;;9.00;99.90;;;;;;5091320;28;20227;-81
2023/12/27 04:25:29;;;;;;;0.30;0.20;;;9.00;99.90;;;;;;5091640;28;20180;-81
2023/12/27 04:27:54;;;;;;;0.30;0.20;;;9.00;99.90;;;;;;5090022;28;20669;-78
2023/12/27 04:30:20;;;;;;;0.30;0.20;;;8.90;99.90;;;;;;5091457;28;20204;-80
2023/12/27 04:32:46;;;;;;;0.30;0.20;;;8.90;99.90;;;;;;5091246;28;20279;-81
2023/12/27 04:35:12;;;;;;;0.30;0.20;;;8.90;99.90;;;;;;5091365;28;20181;-81
2023/12/27 04:37:38;;;;;;;0.30;0.20;;;8.90;99.90;;;;;;5089477;28;20192;-78
2023/12/27 04:40:04;;;;;;;0.30;0.20;;;9.00;99.90;;;;;;5091283;28;20180;-81
2023/12/27 04:42:30;;;;;;;0.30;0.30;;;9.00;99.90;;;;;;5089951;28;20349;-81
2023/12/27 04:44:55;;;;;;;0.30;0.20;;;8.90;99.90;;;;;;5091661;28;20172;-79
2023/12/27 04:47:21;;;;;;;0.30;0.20;;;8.90;99.90;;;;;;5090830;28;20184;-78
2023/12/27 04:49:47;;;;;;;0.30;0.20;;;8.90;99.90;;;;;;5091255;28;20211;-81
2023/12/27 04:52:14;;;;;;;0.30;0.30;;;9.00;99.90;;;;;;5089452;28;20511;-78
2023/12/27 04:54:40;;;;;;;0.30;0.20;;;9.00;99.90;;;;;;5091141;28;20653;-81
2023/12/27 04:57:05;;;;;;;0.30;0.20;;;9.00;99.90;;;;;;5090678;28;20173;-81
2023/12/27 04:59:31;;;;;;;0.30;0.20;;;9.00;99.90;;;;;;5090537;28;20543;-78
2023/12/27 05:01:57;;;;;;;0.30;0.20;;;8.90;99.90;;;;;;5090543;28;20208;-79
2023/12/27 05:04:22;;;;;;;0.30;0.20;;;9.00;99.90;;;;;;5091054;28;20688;-78
2023/12/27 05:06:48;;;;;;;0.30;0.20;;;8.90;99.90;;;;;;5088960;28;20230;-81
2023/12/27 05:09:16;;;;;;;0.30;0.20;;;8.90;99.90;;;;;;5089730;28;20329;-78
2023/12/27 05:11:42;;;;;;;0.30;0.20;;;8.90;99.90;;;;;;5090636;28;20176;-78
2023/12/27 05:14:08;;;;;;;1.60;1.30;;;8.90;99.90;;;;;;5090919;28;20254;-81
2023/12/27 05:16:33;;;;;;;0.30;0.20;;;8.90;99.90;;;;;;5090480;28;20414;-81
2023/12/27 05:18:59;;;;;;;0.30;0.20;;;8.90;99.90;;;;;;5089277;28;20269;-80
2023/12/27 05:21:25;;;;;;;0.30;0.20;;;8.90;99.90;;;;;;5088787;28;20326;-81
2023/12/27 05:23:51;;;;;;;0.30;0.20;;;8.90;99.90;;;;;;5089112;28;20743;-78
2023/12/27 05:26:16;;;;;;;0.30;0.20;;;8.90;99.90;;;;;;5088827;28;20848;-81
2023/12/27 05:28:42;;;;;;;0.30;0.20;;;8.90;99.90;;;;;;5089999;28;20196;-79
2023/12/27 05:31:08;;;;;;;0.30;0.20;;;8.90;99.90;;;;;;5090183;28;20193;-80
2023/12/27 05:33:33;;;;;;;0.30;0.20;;;8.90;99.90;;;;;;5090647;28;20188;-81
2023/12/27 05:35:59;;;;;;;0.30;0.20;;;8.90;99.90;;;;;;5089869;28;20184;-81
2023/12/27 05:38:25;;;;;;;0.30;0.20;;;8.80;99.90;;;;;;5090121;28;20279;-80
2023/12/27 05:40:50;;;;;;;0.30;0.20;;;8.70;99.90;;;;;;5088619;28;20643;-81
2023/12/27 05:43:16;;;;;;;0.30;0.20;;;8.70;99.90;;;;;;5089069;28;20197;-81
2023/12/27 05:45:42;;;;;;;0.30;0.20;;;8.70;99.90;;;;;;5089323;28;20179;-78
2023/12/27 05:48:08;;;;;;;0.30;0.20;;;8.70;99.90;;;;;;5089475;28;20449;-78
2023/12/27 05:50:34;;;;;;;0.30;0.20;;;8.60;99.90;;;;;;5088561;28;20180;-78
2023/12/27 05:53:00;;;;;;;0.30;0.20;;;8.60;99.90;;;;;;5090165;28;20195;-81
2023/12/27 05:55:25;;;;;;;0.30;0.20;;;8.50;99.90;;;;;;5089802;28;20176;-78
2023/12/27 05:57:51;;;;;;;0.30;0.20;;;8.40;99.90;;;;;;5089352;28;20436;-78
2023/12/27 06:00:17;;;;;;;0.30;0.20;;;8.40;99.90;;;;;;5088183;28;20472;-78
2023/12/27 06:02:43;;;;;;;0.30;0.20;;;8.30;99.90;;;;;;5087824;28;20181;-78
2023/12/27 06:05:12;;;;;;;0.30;0.20;;;8.30;99.90;;;;;;5089599;28;20317;-81
2023/12/27 06:07:37;;;;;;;0.30;0.20;;;8.30;99.90;;;;;;5088105;28;20597;-80
2023/12/27 06:10:05;;;;;;;0.30;0.20;;;8.20;99.90;;;;;;5089554;28;20173;-78
2023/12/27 06:12:31;;;;;;;0.30;0.20;;;8.20;99.90;;;;;;5087892;28;20176;-81
2023/12/27 06:14:56;;;;;;;0.30;0.20;;;8.10;99.90;;;;;;5089781;28;20175;-81
2023/12/27 06:17:22;;;;;;;0.30;0.20;;;8.00;99.90;;;;;;5089227;28;20237;-79
2023/12/27 06:19:48;;;;;;;0.30;0.20;;;8.00;99.90;;;;;;5089133;28;20196;-78
2023/12/27 06:22:14;;;;;;;0.30;0.20;;;7.90;99.90;;;;;;5087881;28;20224;-81
2023/12/27 06:24:40;;;;;;;0.30;0.20;;;7.80;99.90;;;;;;5089825;28;20364;-80
2023/12/27 06:27:07;;;;;;;0.30;0.20;;;7.80;99.90;;;;;;5087591;28;20206;-80
2023/12/27 06:29:33;;;;;;;0.30;0.20;;;7.70;99.90;;;;;;5089449;28;20279;-79
2023/12/27 06:31:59;;;;;;;0.30;0.20;;;7.70;99.90;;;;;;5088785;28;20171;-78
2023/12/27 06:34:25;;;;;;;0.30;0.20;;;7.70;99.90;;;;;;5089171;28;20191;-80
2023/12/27 06:36:51;;;;;;;0.30;0.20;;;7.70;99.90;;;;;;5088996;28;20183;-79
2023/12/27 06:39:17;;;;;;;0.30;0.22;;;7.70;99.90;;;;;;5088206;28;20467;-81
2023/12/27 06:41:43;;;;;;;0.30;0.20;;;7.70;99.90;;;;;;5088655;28;20208;-78
2023/12/27 06:44:09;;;;;;;0.30;0.20;;;7.70;99.90;;;;;;5089255;28;20609;-78
2023/12/27 06:46:35;;;;;;;0.30;0.20;;;7.70;99.90;;;;;;5088915;28;20293;-78
2023/12/27 06:49:01;;;;;;;0.30;0.20;;;7.70;99.90;;;;;;5089298;28;20683;-78
2023/12/27 06:51:27;;;;;;;0.30;0.20;;;7.70;99.90;;;;;;5088226;28;20695;-78
2023/12/27 06:53:52;;;;;;;0.30;0.20;;;7.80;99.90;;;;;;5089258;28;20356;-78
2023/12/27 06:56:18;;;;;;;0.30;0.20;;;7.80;99.90;;;;;;5087429;28;20237;-81
2023/12/27 06:58:44;;;;;;;0.30;0.20;;;7.80;99.90;;;;;;5089051;28;20196;-78
2023/12/27 07:01:11;;;;;;;0.30;0.20;;;7.80;99.90;;;;;;5086826;28;20222;-78
2023/12/27 07:03:37;;;;;;;0.30;0.20;;;7.80;99.90;;;;;;5089044;28;20188;-78
2023/12/27 07:06:03;;;;;;;0.30;0.20;;;7.90;99.90;;;;;;5088749;28;20267;-79
2023/12/27 07:08:31;;;;;;;0.30;0.20;;;7.90;99.90;;;;;;5088101;28;20893;-81
2023/12/27 07:10:56;;;;;;;0.38;0.30;;;7.90;99.90;;;;;;5088625;28;20233;-78
2023/12/27 07:13:22;;;;;;;0.30;0.20;;;8.00;99.90;;;;;;5088558;28;20188;-80
2023/12/27 07:15:47;;;;;;;0.30;0.20;;;8.10;99.90;;;;;;5088183;28;20181;-81
2023/12/27 07:18:13;;;;;;;0.30;0.20;;;8.10;99.90;;;;;;5103950;28;20453;-81
2023/12/27 07:20:39;;;;;;;0.30;0.20;;;8.20;99.90;;;;;;5087087;28;20256;-79
2023/12/27 07:23:05;;;;;;;0.30;0.20;;;8.30;99.90;;;;;;5087148;28;20308;-81
2023/12/27 07:25:30;;;;;;;0.30;0.20;;;8.40;99.90;;;;;;5088393;28;20747;-79
2023/12/27 07:27:56;;;;;;;0.30;0.20;;;8.40;99.90;;;;;;5088517;28;20192;-81
2023/12/27 07:30:22;;;;;;;0.80;0.80;;;8.60;99.90;;;;;;5087296;28;20233;-79
2023/12/27 07:32:47;;;;;;;0.30;0.20;;;8.80;99.90;;;;;;5102306;28;20196;-81
2023/12/27 07:35:13;;;;;;;0.30;0.20;;;9.20;99.90;;;;;;5086743;28;20263;-78
2023/12/27 07:37:41;;;;;;;5.30;3.70;;;9.50;99.90;;;;;;5086686;28;20226;-78
2023/12/27 07:40:09;;;;;;;0.30;0.20;;;9.90;99.90;;;;;;5087077;28;20172;-78
2023/12/27 07:42:35;;;;;;;0.30;0.20;;;10.20;99.90;;;;;;5086793;28;20539;-78
2023/12/27 07:45:00;;;;;;;0.30;0.20;;;10.70;99.90;;;;;;5086895;28;20181;-80
2023/12/27 07:47:27;;;;;;;0.30;0.20;;;11.00;99.90;;;;;;5087680;28;20184;-81
2023/12/27 07:49:53;;;;;;;0.30;0.20;;;11.40;99.90;;;;;;5086871;28;20180;-80
2023/12/27 07:52:19;;;;;;;0.40;0.20;;;11.70;99.90;;;;;;5089234;28;20310;-81
2023/12/27 07:54:45;;;;;;;0.30;0.20;;;12.20;99.90;;;;;;5089578;28;20520;-81
2023/12/27 07:57:11;;;;;;;0.40;0.23;;;12.60;99.90;;;;;;5090886;28;20187;-79
2023/12/27 07:59:36;;;;;;;1.70;1.60;;;13.30;99.90;;;;;;5091770;28;20756;-81
2023/12/27 08:02:02;;;;;;;0.30;0.20;;;13.80;99.90;;;;;;5089926;28;20374;-78
2023/12/27 08:04:28;;;;;;;0.37;0.20;;;14.40;99.90;;;;;;5107765;28;20204;-80
2023/12/27 08:06:54;;;;;;;0.30;0.20;;;14.90;99.90;;;;;;5091825;28;20182;-79
2023/12/27 08:09:20;;;;;;;0.40;0.20;;;15.00;99.90;;;;;;5092619;28;20595;-81
2023/12/27 08:11:45;;;;;;;0.30;0.30;;;15.00;99.90;;;;;;5091048;28;20409;-81
2023/12/27 08:14:11;;;;;;;0.40;0.20;;;14.70;99.90;;;;;;5088846;28;20208;-78
2023/12/27 08:16:37;;;;;;;0.40;0.33;;;14.60;99.90;;;;;;5089828;28;20323;-79
2023/12/27 08:19:03;;;;;;;0.40;0.30;;;14.40;99.90;;;;;;5088689;28;20196;-80
2023/12/27 08:21:29;;;;;;;0.30;0.27;;;14.20;99.90;;;;;;5089662;28;20586;-79
2023/12/27 08:23:55;;;;;;;0.30;0.20;;;14.20;99.90;;;;;;5088029;28;20448;-81
2023/12/27 08:26:20;;;;;;;0.30;0.20;;;14.10;99.90;;;;;;5089832;28;20181;-79
2023/12/27 08:28:46;;;;;;;0.30;0.20;;;14.20;99.90;;;;;;5107076;28;20208;-79
2023/12/27 08:31:13;;;;;;;0.40;0.20;;;14.30;99.90;;;;;;5090973;28;20219;-81
2023/12/27 08:33:39;;;;;;;0.40;0.20;;;14.30;99.90;;;;;;5090489;28;21087;-81
2023/12/27 08:36:05;;;;;;;0.40;0.20;;;14.50;99.90;;;;;;5089929;28;20425;-81
2023/12/27 08:38:32;;;;;;;0.40;0.20;;;14.90;99.90;;;;;;5089500;28;20540;-78
2023/12/27 08:40:58;;;;;;;4.93;4.63;;;15.40;99.90;;;;;;5089278;28;20484;-81
2023/12/27 08:43:29;;;;;;;0.40;0.20;;;15.80;99.90;;;;;;5089485;28;20449;-82
2023/12/27 08:45:55;;;;;;;0.40;0.20;;;16.10;99.90;;;;;;5091029;28;20412;-82
2023/12/27 08:48:21;;;;;;;0.40;0.20;;;16.30;99.90;;;;;;5091052;28;20584;-78
2023/12/27 08:50:48;;;;;;;0.40;0.20;;;16.30;99.90;;;;;;5090404;28;20774;-79
2023/12/27 08:53:14;;;;;;;0.30;0.20;;;16.20;99.90;;;;;;5089334;28;20196;-81
2023/12/27 08:55:39;;;;;;;0.40;0.30;;;16.20;99.90;;;;;;5090485;28;20417;-81
2023/12/27 08:58:05;;;;;;;0.37;0.20;;;16.30;99.90;;;;;;5089152;28;20456;-79
2023/12/27 09:00:31;;;;;;;0.30;0.20;;;16.70;99.90;;;;;;5089081;28;20213;-82
2023/12/27 09:02:58;;;;;;;0.40;0.20;;;17.10;99.90;;;;;;5089340;28;20450;-79
2023/12/27 09:05:24;;;;;;;0.30;0.23;;;17.30;99.90;;;;;;5091018;28;20255;-79
2023/12/27 09:07:50;;;;;;;2.33;2.23;;;17.30;99.90;;;;;;5089021;28;20465;-79
2023/12/27 09:10:15;;;;;;;0.30;0.20;;;17.20;99.90;;;;;;5089998;28;20397;-80
2023/12/27 09:12:41;;;;;;;0.30;0.20;;;17.00;99.90;;;;;;5086315;28;20414;-81
2023/12/27 09:15:08;;;;;;;0.90;0.60;;;16.60;99.90;;;;;;5085746;28;20650;-81
2023/12/27 09:17:34;;;;;;;0.40;0.30;;;16.30;99.90;;;;;;5085709;28;20427;-79
2023/12/27 09:20:00;;;;;;;0.40;0.30;;;16.30;99.90;;;;;;5087164;28;20475;-79
2023/12/27 09:22:25;;;;;;;0.40;0.30;;;16.60;99.90;;;;;;5087600;28;20449;-82
2023/12/27 09:24:51;;;;;;;0.40;0.20;;;17.30;99.90;;;;;;5087371;28;20289;-79
2023/12/27 09:27:17;;;;;;;0.40;0.30;;;18.20;99.90;;;;;;5087869;28;20512;-81
2023/12/27 09:29:44;;;;;;;0.40;0.30;;;19.10;99.90;;;;;;5087033;28;20416;-80
2023/12/27 09:32:10;;;;;;;0.40;0.20;;;19.90;99.90;;;;;;5088135;28;20854;-81
2023/12/27 09:34:36;;;;;;;0.40;0.30;;;20.70;99.90;;;;;;5088699;28;20532;-81
2023/12/27 09:37:05;;;;;;;0.40;0.30;;;21.20;98.40;;;;;;5088207;28;20782;-82
2023/12/27 09:39:31;;;;;;;0.40;0.30;;;21.70;98.00;;;;;;5089438;28;20815;-82
2023/12/27 09:41:59;;;;;;;0.30;0.20;;;22.40;97.20;;;;;;5089642;28;20448;-82
2023/12/27 09:44:25;;;;;;;0.30;0.20;;;22.80;95.40;;;;;;5105618;28;20200;-79
2023/12/27 09:46:51;;;;;;;0.30;0.20;;;22.60;94.00;;;;;;5105576;28;20422;-81
2023/12/27 09:49:20;;;;;;;0.40;0.20;;;22.20;94.00;;;;;;5090042;28;20445;-79
2023/12/27 09:51:47;;;;;;;0.40;0.30;;;21.80;93.60;;;;;;5088852;28;20168;-80
2023/12/27 09:54:16;;;;;;;0.30;0.20;;;21.50;94.00;;;;;;5087910;28;20499;-82
2023/12/27 09:56:42;;;;;;;0.33;0.20;;;21.20;94.10;;;;;;5087512;28;21075;-79
2023/12/27 09:59:13;;;;;;;0.40;0.20;;;20.90;93.80;;;;;;5103357;28;20992;-80
2023/12/27 10:01:41;;;;;;;0.83;0.83;;;20.50;93.90;;;;;;5102915;28;20468;-79
2023/12/27 10:04:23;;;;;;;0.40;0.20;;;20.20;94.10;;;;;;5086622;28;20806;-81
2023/12/27 10:06:49;;;;;;;0.43;0.43;;;20.00;94.10;;;;;;5087841;28;20902;-82
2023/12/27 10:09:15;;;;;;;0.40;0.20;;;19.90;94.60;;;;;;5088916;28;20779;-81
2023/12/27 10:11:42;;;;;;;0.40;0.30;;;19.90;95.00;;;;;;5089123;28;20421;-79
2023/12/27 10:14:12;;;;;;;0.30;0.20;;;19.90;94.60;;;;;;5088856;28;20321;-79
2023/12/27 10:16:38;;;;;;;0.30;0.20;;;19.90;95.20;;;;;;5104757;28;20444;-79
2023/12/27 10:19:05;;;;;;;0.30;0.20;;;19.80;95.00;;;;;;5088162;28;20448;-81
2023/12/27 10:21:44;;;;;;;0.33;0.20;;;19.70;95.20;;;;;;5089361;28;20571;-79
2023/12/27 10:24:10;;;;;;;0.30;0.20;;;19.60;94.80;;;;;;5089637;28;20452;-82
2023/12/27 10:26:36;;;;;;;0.40;0.20;;;19.50;94.80;;;;;;5089359;28;20913;-79
2023/12/27 10:29:03;;;;;;;2.60;0.87;;;19.30;94.30;;;;;;5089419;28;20448;-81
2023/12/27 10:31:28;;;;;;;0.30;0.20;;;19.20;94.10;;;;;;5087840;28;20508;-79
2023/12/27 10:33:55;;;;;;;0.30;0.20;;;19.00;94.30;;;;;;5087820;28;21073;-79
2023/12/27 10:36:21;;;;;;;0.40;0.20;;;19.00;94.40;;;;;;5089237;28;20196;-82
2023/12/27 10:38:47;;;;;;;0.30;0.20;;;18.90;94.10;;;;;;5087891;28;20766;-81
2023/12/27 10:41:13;;;;;;;0.30;0.20;;;18.90;94.00;;;;;;5087494;28;20673;-79
2023/12/27 10:43:39;;;;;;;0.30;0.20;;;18.80;93.90;;;;;;5089576;28;20251;-79
2023/12/27 10:46:07;;;;;;;0.30;0.30;;;18.70;93.80;;;;;;5088797;28;20447;-81
2023/12/27 10:48:34;;;;;;;0.30;0.20;;;18.60;94.10;;;;;;5087582;28;20976;-81
2023/12/27 10:50:59;;;;;;;0.57;0.57;;;18.40;93.70;;;;;;5087607;28;20417;-80
2023/12/27 10:53:29;;;;;;;0.30;0.20;;;18.20;93.70;;;;;;5087894;28;20448;-81
2023/12/27 10:55:59;;;;;;;0.30;0.20;;;18.10;94.30;;;;;;5087989;28;20179;-79
2023/12/27 10:58:28;;;;;;;0.30;0.20;;;17.90;94.00;;;;;;5089031;28;20626;-79
2023/12/27 11:00:55;;;;;;;0.30;0.20;;;17.80;94.20;;;;;;5088272;28;20571;-82
2023/12/27 11:03:22;;;;;;;0.30;0.20;;;17.60;94.60;;;;;;5089096;28;20970;-81
2023/12/27 11:05:50;;;;;;;0.30;0.20;;;17.50;94.70;;;;;;5087502;28;20610;-79
2023/12/27 11:08:18;;;;;;;0.30;0.20;;;17.40;94.50;;;;;;5089065;28;20480;-81
2023/12/27 11:10:45;;;;;;;0.30;0.20;;;17.20;94.50;;;;;;5088709;28;20420;-79
2023/12/27 11:13:14;;;;;;;0.50;0.50;;;17.10;94.40;;;;;;5088788;28;20443;-81
2023/12/27 11:15:44;;;;;;;0.30;0.20;;;16.90;94.60;;;;;;5088819;28;20418;-78
2023/12/27 11:18:11;;;;;;;0.50;0.47;;;16.70;94.60;;;;;;5088621;28;20431;-81
2023/12/27 11:20:39;;;;;;;0.30;0.20;;;16.60;94.80;;;;;;5088548;28;20520;-79
2023/12/27 11:23:06;;;;;;;0.30;0.20;;;16.50;95.00;;;;;;5088422;28;20461;-81
2023/12/27 11:25:32;;;;;;;0.30;0.20;;;16.40;95.50;;;;;;5089176;28;20477;-79
2023/12/27 11:27:59;;;;;;;0.40;0.20;;;16.40;95.50;;;;;;5092808;28;20434;-80
2023/12/27 11:30:28;;;;;;;0.30;0.20;;;16.30;94.90;;;;;;5092765;28;20443;-79
2023/12/27 11:32:54;;;;;;;0.30;0.20;;;16.30;95.10;;;;;;5092559;28;20434;-81
2023/12/27 11:35:30;;;;;;;0.30;0.20;;;16.20;95.40;;;;;;5092671;28;20410;-80
2023/12/27 11:38:20;;;;;;;0.40;0.20;;;16.20;95.50;;;;;;5107991;28;20444;-79
2023/12/27 11:40:52;;;;;;;0.30;0.20;;;16.20;95.90;;;;;;5090561;28;20571;-79
2023/12/27 11:43:25;;;;;;;0.40;0.20;;;16.20;96.10;;;;;;5089419;28;20518;-79
2023/12/27 11:46:02;;;;;;;0.30;0.20;;;16.30;95.50;;;;;;5090308;28;20505;-81
2023/12/27 11:48:37;;;;;;;0.30;0.20;;;16.30;95.80;;;;;;5089080;28;20973;-79
2023/12/27 11:51:27;;;;;;;0.30;0.20;;;16.40;95.70;;;;;;5089935;28;20781;-81
2023/12/27 11:53:53;;;;;;;0.40;0.20;;;16.40;95.90;;;;;;5091687;28;20524;-80
2023/12/27 11:56:20;;;;;;;0.40;0.30;;;16.50;95.70;;;;;;5107118;28;20504;-81
2023/12/27 11:58:46;;;;;;;1.23;1.23;;;16.50;95.60;;;;;;5091783;28;20813;-79
2023/12/27 12:01:21;;;;;;;0.30;0.20;;;16.60;95.10;;;;;;5091549;28;20565;-79
2023/12/27 12:03:55;;;;;;;0.30;0.20;;;16.60;94.80;;;;;;5091861;28;20437;-82
2023/12/27 12:06:27;;;;;;;0.30;0.20;;;16.60;94.60;;;;;;5091977;28;20886;-81
2023/12/27 12:08:53;;;;;;;0.30;0.20;;;16.50;94.60;;;;;;5092256;28;20445;-81
2023/12/27 12:11:23;;;;;;;0.40;0.30;;;16.40;95.10;;;;;;5091388;28;20421;-80
2023/12/27 12:13:49;;;;;;;0.30;0.20;;;16.40;95.50;;;;;;5079498;28;20545;-81
2023/12/27 12:16:15;;;;;;;0.30;0.20;;;16.50;95.80;;;;;;5080429;28;20919;-79
2023/12/27 12:18:42;;;;;;;0.30;0.20;;;16.60;96.00;;;;;;5083220;28;20938;-81
2023/12/27 12:21:09;;;;;;;0.30;0.20;;;16.60;96.00;;;;;;5078628;28;20530;-81
2023/12/27 12:23:34;;;;;;;0.30;0.20;;;16.70;96.10;;;;;;5079372;28;20435;-79
2023/12/27 12:26:02;;;;;;;0.30;0.20;;;16.70;95.80;;;;;;5071088;28;20431;-81
2023/12/27 12:28:28;;;;;;;0.30;0.20;;;16.70;95.40;;;;;;5071047;28;20695;-81
2023/12/27 12:30:58;;;;;;;0.30;0.20;;;16.70;95.50;;;;;;5070277;28;20766;-81
2023/12/27 12:33:25;;;;;;;0.30;0.20;;;16.70;95.60;;;;;;5069206;28;20447;-79
2023/12/27 12:35:52;;;;;;;0.30;0.20;;;16.70;96.00;;;;;;5069003;28;20688;-79
2023/12/27 12:38:18;;;;;;;0.30;0.20;;;16.70;95.90;;;;;;5070479;28;20908;-79
2023/12/27 12:40:45;;;;;;;0.40;0.20;;;16.80;95.90;;;;;;5070123;28;20831;-79
2023/12/27 12:43:13;;;;;;;0.30;0.20;;;16.80;95.90;;;;;;5086371;28;20444;-79
2023/12/27 12:45:39;;;;;;;0.30;0.20;;;16.80;95.90;;;;;;5069837;28;20414;-80
2023/12/27 12:48:05;;;;;;;0.30;0.20;;;16.80;95.70;;;;;;5069495;28;20994;-79